Time;durP1;ratioP1;P1;durP2;ratioP2;P2;SDS_P1;SDS_P2;PMS_P1;PMS_P2;Temp;Humidity;BMP_temperature;BMP_pressure;BME280_temperature;BME280_humidity;BME280_pressure;Samples;Min_cycle;Max_cycle;Signal;HPM_P1;HPM_P2
2023/04/26 00:01:20;;;;;;;5.80;3.45;;;;;;;4.37;100.00;98721.88;4138315;28;20244;-48
2023/04/26 00:03:23;;;;;;;5.68;4.07;;;;;;;4.41;100.00;98720.38;4136421;28;20210;-48
2023/04/26 00:05:28;;;;;;;6.32;3.25;;;;;;;4.43;100.00;98723.75;4141128;28;20291;-48
2023/04/26 00:07:30;;;;;;;5.10;3.05;;;;;;;4.45;100.00;98723.53;4124072;28;20668;-48
2023/04/26 00:09:32;;;;;;;3.80;3.42;;;;;;;4.50;100.00;98726.44;4143531;28;20717;-48
2023/04/26 00:11:34;;;;;;;3.30;3.00;;;;;;;4.47;100.00;98724.16;4137430;28;21024;-48
2023/04/26 00:13:37;;;;;;;7.53;3.97;;;;;;;4.48;100.00;98723.94;4119590;28;20685;-47
2023/04/26 00:15:39;;;;;;;4.70;3.00;;;;;;;4.47;100.00;98724.16;4141529;28;20229;-47
2023/04/26 00:17:41;;;;;;;4.97;3.47;;;;;;;4.39;100.00;98719.78;4141706;28;20251;-47
2023/04/26 00:19:44;;;;;;;3.05;2.80;;;;;;;4.32;100.00;98718.94;4143136;28;20355;-48
2023/04/26 00:21:45;;;;;;;3.30;2.78;;;;;;;4.30;100.00;98721.03;4138626;28;20245;-47
2023/04/26 00:23:47;;;;;;;4.22;3.60;;;;;;;4.20;100.00;98719.75;4154014;28;20208;-49
2023/04/26 00:25:49;;;;;;;7.68;4.57;;;;;;;4.25;100.00;98717.22;4155962;28;20204;-47
2023/04/26 00:27:51;;;;;;;5.63;4.30;;;;;;;4.22;100.00;98718.50;4135916;28;20289;-48
2023/04/26 00:29:52;;;;;;;4.47;4.07;;;;;;;4.17;100.00;98721.00;4137221;28;20268;-48
2023/04/26 00:31:54;;;;;;;5.60;4.00;;;;;;;4.11;100.00;98716.38;4137856;28;20649;-48
2023/04/26 00:33:56;;;;;;;4.55;3.92;;;;;;;4.07;100.00;98725.94;4138205;28;20217;-48
2023/04/26 00:35:58;;;;;;;7.95;4.05;;;;;;;4.00;100.00;98725.09;4140897;28;20235;-48
2023/04/26 00:37:59;;;;;;;4.47;4.10;;;;;;;3.94;100.00;98725.91;4141842;28;20209;-48
2023/04/26 00:40:01;;;;;;;8.27;3.40;;;;;;;3.88;100.00;98715.88;4151426;28;20687;-47
2023/04/26 00:42:03;;;;;;;4.30;3.22;;;;;;;3.88;100.00;98715.88;4141273;28;20257;-49
2023/04/26 00:44:05;;;;;;;3.40;3.10;;;;;;;3.82;100.00;98722.13;4140229;28;20248;-48
2023/04/26 00:46:10;;;;;;;3.38;2.92;;;;;;;3.84;100.00;98720.06;4123496;28;20235;-48
2023/04/26 00:48:12;;;;;;;3.88;2.55;;;;;;;3.93;100.00;98726.94;4140898;28;20670;-48
2023/04/26 00:50:14;;;;;;;3.97;3.05;;;;;;;3.84;100.00;98725.47;4141643;28;20251;-48
2023/04/26 00:52:16;;;;;;;4.80;3.28;;;;;;;3.82;100.00;98721.28;4123077;28;20210;-48
2023/04/26 00:54:19;;;;;;;3.47;2.75;;;;;;;3.87;100.00;98719.63;4122705;28;20307;-48
2023/04/26 00:56:21;;;;;;;5.25;3.65;;;;;;;3.88;100.00;98726.72;4150384;28;20263;-47
2023/04/26 00:58:23;;;;;;;6.25;2.78;;;;;;;3.80;100.00;98724.19;4122811;28;20221;-48
2023/04/26 01:00:24;;;;;;;5.80;3.80;;;;;;;3.90;100.00;98719.25;4134094;28;20792;-48
2023/04/26 01:02:26;;;;;;;8.85;6.30;;;;;;;3.76;100.00;98728.34;4147191;28;20217;-47
2023/04/26 01:04:29;;;;;;;12.88;6.97;;;;;;;3.74;100.00;98735.81;4133847;28;20280;-48
2023/04/26 01:06:33;;;;;;;8.00;6.80;;;;;;;3.81;100.00;98717.72;4137053;28;20726;-49
2023/04/26 01:08:35;;;;;;;10.13;6.53;;;;;;;3.71;100.00;98720.00;4151887;28;20300;-49
2023/04/26 01:10:37;;;;;;;7.80;5.68;;;;;;;3.66;100.00;98721.66;4139720;28;20622;-49
2023/04/26 01:12:39;;;;;;;6.63;5.53;;;;;;;3.83;100.00;98712.13;4136011;28;20281;-49
2023/04/26 01:14:42;;;;;;;12.35;6.47;;;;;;;3.73;100.00;98717.91;4126152;28;20692;-49
2023/04/26 01:16:45;;;;;;;13.40;6.32;;;;;;;3.65;100.00;98711.84;4136354;28;20221;-49
2023/04/26 01:18:51;;;;;;;8.68;5.93;;;;;;;3.77;100.00;98708.38;4134916;28;20221;-49
2023/04/26 01:20:55;;;;;;;6.65;4.97;;;;;;;3.69;100.00;98716.66;4137174;28;20202;-49
2023/04/26 01:22:57;;;;;;;5.85;3.22;;;;;;;3.66;100.00;98716.25;4117618;28;20652;-49
2023/04/26 01:25:00;;;;;;;4.38;3.63;;;;;;;3.71;100.00;98720.00;4124196;28;20241;-49
2023/04/26 01:27:02;;;;;;;3.55;3.25;;;;;;;3.63;100.00;98712.06;4152677;28;20213;-49
2023/04/26 01:29:12;;;;;;;3.92;2.38;;;;;;;3.59;100.00;98715.34;4152106;28;20233;-49
2023/04/26 01:31:15;;;;;;;3.20;2.90;;;;;;;3.57;100.00;98723.69;4153405;28;20205;-49
2023/04/26 01:33:17;;;;;;;4.32;3.20;;;;;;;3.50;100.00;98719.25;4140732;28;20682;-49
2023/04/26 01:35:18;;;;;;;5.30;2.70;;;;;;;3.51;100.00;98716.38;4141184;28;20295;-48
2023/04/26 01:37:20;;;;;;;3.17;2.40;;;;;;;3.43;100.00;98716.53;4134747;28;20241;-49
2023/04/26 01:39:22;;;;;;;3.30;3.00;;;;;;;3.35;100.00;98713.97;4140207;28;20359;-49
2023/04/26 01:41:24;;;;;;;3.42;2.88;;;;;;;3.33;100.00;98710.66;4150849;28;20240;-49
2023/04/26 01:43:26;;;;;;;4.03;2.90;;;;;;;3.26;100.00;98709.78;4140174;28;20702;-50
2023/04/26 01:45:29;;;;;;;3.88;3.03;;;;;;;3.22;100.00;98716.63;4140418;28;20260;-48
2023/04/26 01:47:31;;;;;;;6.90;2.15;;;;;;;3.27;100.00;98722.25;4137756;28;20224;-50
2023/04/26 01:49:33;;;;;;;4.03;2.92;;;;;;;3.24;100.00;98728.06;4139734;28;20280;-49
2023/04/26 01:51:35;;;;;;;4.68;2.72;;;;;;;3.26;100.00;98720.59;4136704;28;20300;-50
2023/04/26 01:53:37;;;;;;;2.83;2.63;;;;;;;3.23;100.00;98722.84;4134939;28;20929;-49
2023/04/26 01:55:39;;;;;;;5.75;2.85;;;;;;;3.15;100.00;98723.03;4139014;28;20233;-48
2023/04/26 01:57:41;;;;;;;4.05;2.78;;;;;;;3.22;100.00;98724.75;4139845;28;20740;-48
2023/04/26 01:59:42;;;;;;;3.45;2.53;;;;;;;3.16;100.00;98714.72;4137827;28;20309;-49
2023/04/26 02:01:44;;;;;;;3.92;3.30;;;;;;;3.11;100.00;98716.31;4137342;28;20213;-50
2023/04/26 02:03:46;;;;;;;3.72;3.13;;;;;;;3.17;100.00;98719.09;4135437;28;20215;-49
2023/04/26 02:05:47;;;;;;;4.90;3.55;;;;;;;3.10;100.00;98715.50;4140208;28;20209;-49
2023/04/26 02:07:50;;;;;;;4.13;3.15;;;;;;;3.03;100.00;98719.19;4155025;28;20219;-49
2023/04/26 02:09:51;;;;;;;4.88;2.72;;;;;;;2.99;100.00;98724.16;4135502;28;20253;-50
2023/04/26 02:11:53;;;;;;;4.30;3.25;;;;;;;2.92;100.00;98720.56;4136588;28;20213;-49
2023/04/26 02:13:58;;;;;;;3.85;3.05;;;;;;;2.90;100.00;98719.94;4119168;28;20374;-50
2023/04/26 02:16:00;;;;;;;4.90;3.55;;;;;;;3.01;100.00;98713.97;4134970;28;20312;-50
2023/04/26 02:18:02;;;;;;;3.63;3.30;;;;;;;2.91;100.00;98721.63;4133434;28;21076;-49
2023/04/26 02:20:06;;;;;;;5.13;2.67;;;;;;;2.86;100.00;98715.13;4136354;28;20229;-50
2023/04/26 02:22:07;;;;;;;4.68;3.20;;;;;;;2.84;100.00;98715.31;4137343;28;20229;-50
2023/04/26 02:24:10;;;;;;;8.07;3.75;;;;;;;2.94;100.00;98712.28;4136407;28;20216;-49
2023/04/26 02:26:12;;;;;;;3.97;3.10;;;;;;;2.98;100.00;98711.69;4135304;28;20240;-49
2023/04/26 02:28:15;;;;;;;2.65;2.45;;;;;;;2.92;100.00;98717.88;4121577;28;20213;-49
2023/04/26 02:30:16;;;;;;;7.97;3.60;;;;;;;2.82;100.00;98711.16;4139611;28;20271;-49
2023/04/26 02:32:18;;;;;;;3.17;2.83;;;;;;;2.82;100.00;98722.78;4139351;28;20733;-49
2023/04/26 02:34:23;;;;;;;4.50;4.18;;;;;;;2.76;100.00;98723.59;4143885;28;20213;-49
2023/04/26 02:36:26;;;;;;;4.75;2.63;;;;;;;2.81;100.00;98723.00;4142315;28;20271;-49
2023/04/26 02:38:27;;;;;;;4.28;3.60;;;;;;;2.76;100.00;98731.69;4141033;28;20263;-49
2023/04/26 02:40:33;;;;;;;4.10;3.00;;;;;;;2.79;100.00;98731.28;4140153;28;20265;-48
2023/04/26 02:42:38;;;;;;;3.80;3.50;;;;;;;2.79;100.00;98731.28;4126874;28;20265;-50
2023/04/26 02:44:41;;;;;;;5.07;2.90;;;;;;;2.77;100.00;98725.25;4127464;28;20372;-49
2023/04/26 02:46:43;;;;;;;3.30;3.03;;;;;;;2.77;100.00;98730.66;4138640;28;20205;-50
2023/04/26 02:48:45;;;;;;;4.10;3.72;;;;;;;2.81;100.00;98723.81;4138487;28;20690;-49
2023/04/26 02:50:46;;;;;;;3.13;2.88;;;;;;;2.80;100.00;98721.31;4143918;28;20209;-50
2023/04/26 02:52:48;;;;;;;3.53;3.10;;;;;;;2.70;100.00;98723.50;4140671;28;20209;-49
2023/04/26 02:54:50;;;;;;;4.65;3.60;;;;;;;2.61;100.00;98724.69;4122330;28;20229;-48
2023/04/26 02:56:52;;;;;;;8.10;3.60;;;;;;;2.54;100.00;98724.63;4137343;28;21167;-49
2023/04/26 02:58:53;;;;;;;6.85;4.13;;;;;;;2.48;100.00;98720.00;4137640;28;20221;-49
2023/04/26 03:00:57;;;;;;;10.30;4.93;;;;;;;2.58;100.00;98725.91;4139334;28;20683;-49
2023/04/26 03:03:02;;;;;;;4.82;3.85;;;;;;;2.47;100.00;98728.31;4140690;28;20209;-49
2023/04/26 03:05:04;;;;;;;4.35;3.97;;;;;;;2.57;100.00;98718.84;4137425;28;20959;-49
2023/04/26 03:07:06;;;;;;;4.32;3.92;;;;;;;2.54;100.00;98730.03;4145763;28;20237;-50
2023/04/26 03:09:08;;;;;;;11.85;4.45;;;;;;;2.49;100.00;98727.09;4140443;28;20284;-49
2023/04/26 03:11:10;;;;;;;10.48;2.92;;;;;;;2.46;100.00;98727.47;4143714;28;20694;-50
2023/04/26 03:13:12;;;;;;;5.55;3.53;;;;;;;2.48;100.00;98730.78;4140677;28;20251;-49
2023/04/26 03:15:14;;;;;;;3.72;3.42;;;;;;;2.50;100.00;98723.34;4154354;28;20209;-49
2023/04/26 03:17:15;;;;;;;4.30;3.83;;;;;;;2.47;100.00;98729.13;4154280;28;20255;-49
2023/04/26 03:19:17;;;;;;;3.65;3.20;;;;;;;2.43;100.00;98722.47;4141730;28;20340;-50
2023/04/26 03:21:19;;;;;;;4.22;3.28;;;;;;;2.38;100.00;98724.91;4137291;28;20308;-50
2023/04/26 03:23:24;;;;;;;4.70;2.92;;;;;;;2.39;100.00;98728.41;4135814;28;20210;-49
2023/04/26 03:25:26;;;;;;;3.50;3.20;;;;;;;2.40;100.00;98727.41;4126411;28;20214;-49
2023/04/26 03:27:27;;;;;;;4.72;3.42;;;;;;;2.43;100.00;98721.63;4126616;28;20211;-48
2023/04/26 03:29:29;;;;;;;4.07;3.78;;;;;;;2.36;100.00;98726.13;4141636;28;20255;-49
2023/04/26 03:31:31;;;;;;;10.65;3.20;;;;;;;2.31;100.00;98715.91;4141939;28;20677;-50
2023/04/26 03:33:33;;;;;;;4.75;3.78;;;;;;;2.33;100.00;98719.25;4151269;28;20857;-50
2023/04/26 03:35:34;;;;;;;4.65;3.78;;;;;;;2.34;100.00;98712.81;4136492;28;20216;-50
2023/04/26 03:37:38;;;;;;;3.55;3.25;;;;;;;2.29;100.00;98714.44;4138519;28;20214;-49
2023/04/26 03:39:40;;;;;;;4.47;3.42;;;;;;;2.33;100.00;98708.44;4136684;28;20753;-50
2023/04/26 03:41:42;;;;;;;5.63;3.72;;;;;;;2.20;100.00;98700.22;4124303;28;20297;-50
2023/04/26 03:43:43;;;;;;;3.80;3.42;;;;;;;2.14;100.00;98700.97;4155623;28;20248;-50
2023/04/26 03:45:48;;;;;;;3.63;3.33;;;;;;;2.14;100.00;98695.59;4139351;28;20241;-49
2023/04/26 03:47:50;;;;;;;5.05;3.72;;;;;;;2.06;100.00;98698.41;4137087;28;20391;-51
2023/04/26 03:49:52;;;;;;;3.80;3.13;;;;;;;2.08;100.00;98695.53;4135691;28;20240;-51
2023/04/26 03:51:54;;;;;;;4.38;3.88;;;;;;;2.10;100.00;98693.47;4136361;28;20205;-50
2023/04/26 03:53:56;;;;;;;4.30;3.50;;;;;;;2.10;100.00;98693.47;4131562;28;20283;-51
2023/04/26 03:55:58;;;;;;;4.95;3.22;;;;;;;2.10;100.00;98691.63;4138896;28;20328;-51
2023/04/26 03:58:02;;;;;;;5.22;3.63;;;;;;;2.01;100.00;98694.63;4134917;28;20243;-49
2023/04/26 04:00:12;;;;;;;3.83;3.35;;;;;;;2.13;100.00;98691.22;4117029;28;20234;-48
2023/04/26 04:02:14;;;;;;;3.15;2.83;;;;;;;2.07;100.00;98693.88;4138298;28;20659;-48
2023/04/26 04:04:16;;;;;;;4.95;4.13;;;;;;;2.09;100.00;98698.03;4122642;28;20202;-50
2023/04/26 04:06:18;;;;;;;4.70;4.20;;;;;;;1.98;100.00;98695.84;4124873;28;20236;-50
2023/04/26 04:08:20;;;;;;;3.90;3.40;;;;;;;2.02;100.00;98697.13;4140049;28;20259;-50
2023/04/26 04:10:22;;;;;;;2.92;2.72;;;;;;;1.96;100.00;98702.47;4152776;28;20773;-51
2023/04/26 04:12:24;;;;;;;6.38;4.00;;;;;;;1.94;100.00;98699.94;4135461;28;20237;-50
2023/04/26 04:14:26;;;;;;;4.47;3.83;;;;;;;1.84;100.00;98699.44;4136502;28;20304;-51
2023/04/26 04:16:27;;;;;;;4.47;4.03;;;;;;;1.83;100.00;98696.91;4135124;28;20280;-51
2023/04/26 04:18:29;;;;;;;4.80;3.88;;;;;;;1.82;100.00;98706.84;4140844;28;20276;-51
2023/04/26 04:20:31;;;;;;;3.95;3.65;;;;;;;1.83;100.00;98702.31;4140004;28;20237;-50
2023/04/26 04:22:33;;;;;;;6.35;4.43;;;;;;;1.83;100.00;98703.16;4121538;28;20775;-51
2023/04/26 04:24:35;;;;;;;5.18;4.68;;;;;;;1.92;100.00;98706.56;4138632;28;20646;-51
2023/04/26 04:26:38;;;;;;;4.28;3.95;;;;;;;1.93;100.00;98708.25;4135918;28;20259;-50
2023/04/26 04:28:44;;;;;;;5.10;2.97;;;;;;;1.98;100.00;98716.59;4149809;28;20212;-51
2023/04/26 04:30:46;;;;;;;4.72;3.22;;;;;;;1.96;100.00;98719.50;4117357;28;20293;-50
2023/04/26 04:32:47;;;;;;;3.17;2.95;;;;;;;2.02;100.00;98726.78;4134078;28;20197;-51
2023/04/26 04:34:52;;;;;;;5.25;4.10;;;;;;;2.06;100.00;98720.00;4133710;28;20213;-51
2023/04/26 04:36:54;;;;;;;4.47;3.03;;;;;;;2.04;100.00;98722.06;4139815;28;20225;-50
2023/04/26 04:39:11;;;;;;;4.22;3.20;;;;;;;2.05;100.00;98723.72;4148827;28;20264;-51
2023/04/26 04:41:13;;;;;;;3.88;3.58;;;;;;;2.07;100.00;98727.06;4149772;28;20629;-50
2023/04/26 04:43:15;;;;;;;3.45;3.15;;;;;;;2.02;100.00;98732.19;4122695;28;20284;-49
2023/04/26 04:45:17;;;;;;;9.15;4.75;;;;;;;2.01;100.00;98727.81;4136515;28;20723;-51
2023/04/26 04:47:19;;;;;;;4.15;3.72;;;;;;;1.99;100.00;98729.91;4121245;28;20661;-50
2023/04/26 04:49:21;;;;;;;4.47;4.18;;;;;;;1.92;100.00;98728.13;4132260;28;20316;-50
2023/04/26 04:51:22;;;;;;;3.80;3.47;;;;;;;1.98;100.00;98724.69;4139369;28;20304;-50
2023/04/26 04:53:24;;;;;;;3.83;3.50;;;;;;;1.92;100.00;98723.59;4136303;28;20221;-50
2023/04/26 04:55:26;;;;;;;4.07;3.65;;;;;;;1.84;100.00;98729.09;4132668;28;20669;-50
2023/04/26 04:57:28;;;;;;;7.55;3.90;;;;;;;1.77;100.00;98725.50;4147115;28;20248;-50
2023/04/26 04:59:32;;;;;;;6.05;4.05;;;;;;;1.84;100.00;98730.94;4130587;28;20237;-50
2023/04/26 05:01:34;;;;;;;4.30;3.55;;;;;;;1.86;100.00;98729.75;4134514;28;20322;-50
2023/04/26 05:03:36;;;;;;;5.30;3.58;;;;;;;1.85;100.00;98727.22;4150410;28;20212;-50
2023/04/26 05:05:38;;;;;;;4.00;3.65;;;;;;;1.87;100.00;98736.00;4136215;28;20735;-51
2023/04/26 05:07:40;;;;;;;4.70;4.30;;;;;;;1.88;100.00;98737.66;4117012;28;20210;-49
2023/04/26 05:09:43;;;;;;;4.43;3.75;;;;;;;1.84;100.00;98742.59;4137971;28;20316;-49
2023/04/26 05:11:56;;;;;;;5.15;3.88;;;;;;;1.88;100.00;98738.47;4121981;28;20278;-51
2023/04/26 05:14:15;;;;;;;5.25;3.58;;;;;;;1.98;100.00;98739.00;4137945;28;20294;-48
2023/04/26 05:16:17;;;;;;;6.15;4.53;;;;;;;1.95;100.00;98747.47;4124191;28;20229;-49
2023/04/26 05:18:20;;;;;;;4.20;3.67;;;;;;;1.96;100.00;98745.63;4140724;28;20208;-49
2023/04/26 05:20:25;;;;;;;4.60;4.30;;;;;;;2.01;100.00;98749.41;4134861;28;20889;-49
2023/04/26 05:22:27;;;;;;;4.50;4.13;;;;;;;2.12;100.00;98742.69;4134847;28;20210;-49
2023/04/26 05:24:30;;;;;;;4.05;3.72;;;;;;;1.75;100.00;98748.28;4139111;28;20293;-49
2023/04/26 05:26:43;;;;;;;6.38;4.10;;;;;;;2.00;100.00;98753.16;4125359;28;20654;-49
2023/04/26 05:28:45;;;;;;;3.90;3.63;;;;;;;1.97;100.00;98752.69;4132133;28;20219;-50
2023/04/26 05:30:50;;;;;;;3.92;3.63;;;;;;;1.86;100.00;98762.13;4141255;28;20587;-50
2023/04/26 05:32:52;;;;;;;4.70;4.30;;;;;;;2.04;100.00;98759.84;4138773;28;20213;-50
2023/04/26 05:34:54;;;;;;;4.90;4.10;;;;;;;2.32;100.00;98763.47;4140736;28;20320;-49
2023/04/26 05:37:09;;;;;;;4.82;4.40;;;;;;;2.46;100.00;98759.88;4143367;28;20265;-49
2023/04/26 05:39:11;;;;;;;4.75;4.15;;;;;;;2.63;100.00;98761.28;4124476;28;20650;-49
2023/04/26 05:41:13;;;;;;;7.60;4.78;;;;;;;2.68;100.00;98766.09;4140567;28;20224;-49
2023/04/26 05:43:16;;;;;;;5.35;4.85;;;;;;;2.70;100.00;98767.59;4119238;28;20214;-49
2023/04/26 05:45:18;;;;;;;7.57;5.25;;;;;;;2.78;100.00;98770.13;4134374;28;20242;-48
2023/04/26 05:47:20;;;;;;;4.85;4.50;;;;;;;3.03;100.00;98771.41;4141136;28;20941;-50
2023/04/26 05:49:28;;;;;;;5.68;4.50;;;;;;;3.40;100.00;98779.13;4137774;28;20711;-49
2023/04/26 05:51:32;;;;;;;5.85;5.28;;;;;;;3.61;100.00;98778.22;4136203;28;20209;-50
2023/04/26 05:53:34;;;;;;;16.85;5.63;;;;;;;3.85;100.00;98775.84;4140881;28;20736;-50
2023/04/26 05:55:36;;;;;;;6.95;4.93;;;;;;;4.11;100.00;98775.94;4117753;28;20296;-49
2023/04/26 05:57:39;;;;;;;5.43;4.93;;;;;;;4.20;100.00;98774.72;4135880;28;20688;-49
2023/04/26 05:59:41;;;;;;;5.78;5.18;;;;;;;4.46;100.00;98777.50;4121494;28;20954;-49
2023/04/26 06:01:44;;;;;;;7.80;5.97;;;;;;;4.55;100.00;98780.88;4126274;28;20213;-49
2023/04/26 06:03:50;;;;;;;6.40;5.80;;;;;;;4.75;100.00;98774.44;4135878;28;20661;-50
2023/04/26 06:05:58;;;;;;;4.85;4.45;;;;;;;4.99;100.00;98783.84;4140782;28;20690;-50
2023/04/26 06:08:01;;;;;;;5.88;4.10;;;;;;;5.20;100.00;98784.44;4134797;28;20717;-49
2023/04/26 06:10:03;;;;;;;5.35;4.70;;;;;;;5.33;100.00;98779.00;4119444;28;20237;-50
2023/04/26 06:12:12;;;;;;;3.85;3.30;;;;;;;5.55;100.00;98775.03;4119654;28;20298;-49
2023/04/26 06:14:15;;;;;;;4.85;4.03;;;;;;;5.44;100.00;98778.38;4132328;28;20264;-49
2023/04/26 06:16:30;;;;;;;4.32;3.92;;;;;;;5.52;100.00;98783.59;4126308;28;20210;-50
2023/04/26 06:18:34;;;;;;;5.00;3.97;;;;;;;5.33;100.00;98784.44;4125768;28;20214;-49
2023/04/26 06:20:36;;;;;;;6.53;4.50;;;;;;;5.47;100.00;98781.50;4124345;28;20217;-49
2023/04/26 06:22:38;;;;;;;8.30;3.35;;;;;;;5.73;100.00;98780.59;4141305;28;20663;-49
2023/04/26 06:24:40;;;;;;;6.57;3.28;;;;;;;5.85;100.00;98776.22;4135429;28;20259;-49
2023/04/26 06:26:42;;;;;;;5.85;4.13;;;;;;;5.92;100.00;98782.47;4134897;28;20245;-49
2023/04/26 06:28:44;;;;;;;5.88;3.50;;;;;;;6.22;100.00;98791.75;4136993;28;20214;-49
2023/04/26 06:30:46;;;;;;;4.25;3.75;;;;;;;6.17;99.28;98775.28;4137405;28;20213;-49
2023/04/26 06:32:49;;;;;;;3.67;3.38;;;;;;;6.42;100.00;98776.19;4120924;28;20206;-49
2023/04/26 06:34:57;;;;;;;5.25;3.33;;;;;;;6.49;99.64;98771.56;4153203;28;20642;-50
2023/04/26 06:36:59;;;;;;;3.95;3.53;;;;;;;6.75;100.00;98776.84;4135398;28;20813;-49
2023/04/26 06:39:02;;;;;;;5.57;3.88;;;;;;;7.14;98.56;98776.50;4136038;28;20256;-49
2023/04/26 06:41:03;;;;;;;5.07;3.42;;;;;;;7.38;96.16;98776.53;4120343;28;20304;-48
2023/04/26 06:43:08;;;;;;;6.82;3.78;;;;;;;7.11;94.29;98771.53;4134513;28;20207;-49
2023/04/26 06:45:11;;;;;;;5.00;3.50;;;;;;;6.51;93.13;98774.88;4120029;28;20198;-49
2023/04/26 06:47:13;;;;;;;5.95;3.63;;;;;;;6.59;94.21;98782.78;4135626;28;20202;-49
2023/04/26 06:49:20;;;;;;;4.78;3.67;;;;;;;6.92;94.02;98775.22;4132746;28;20230;-48
2023/04/26 06:51:22;;;;;;;3.95;3.05;;;;;;;6.72;94.04;98783.53;4132538;28;20251;-49
2023/04/26 06:53:24;;;;;;;5.38;3.65;;;;;;;6.80;93.09;98785.13;4122456;28;20226;-49
2023/04/26 06:55:26;;;;;;;3.63;3.33;;;;;;;6.87;92.35;98775.03;4148209;28;20627;-49
2023/04/26 06:57:28;;;;;;;4.28;3.45;;;;;;;7.79;93.62;98767.72;4136715;28;20258;-49
2023/04/26 06:59:30;;;;;;;5.07;3.00;;;;;;;8.45;89.33;98774.91;4133793;28;20889;-49
2023/04/26 07:01:33;;;;;;;5.32;4.43;;;;;;;8.48;89.71;98770.91;4134028;28;20209;-49
2023/04/26 07:03:44;;;;;;;9.82;3.05;;;;;;;8.91;87.43;98779.69;4131921;28;20209;-49
2023/04/26 07:05:47;;;;;;;5.05;3.15;;;;;;;8.64;87.64;98770.25;4132866;28;20210;-48
2023/04/26 07:07:49;;;;;;;3.78;3.15;;;;;;;8.86;87.12;98774.09;4115228;28;20205;-49
2023/04/26 07:09:51;;;;;;;10.02;2.92;;;;;;;8.76;85.59;98777.38;4134355;28;20774;-49
2023/04/26 07:12:04;;;;;;;5.75;2.58;;;;;;;8.86;84.68;98785.84;4135618;28;20217;-50
2023/04/26 07:14:10;;;;;;;3.50;2.80;;;;;;;9.09;84.95;98785.91;4133457;28;20659;-49
2023/04/26 07:16:12;;;;;;;3.13;2.83;;;;;;;9.55;82.95;98787.88;4137900;28;20201;-49
2023/04/26 07:18:15;;;;;;;4.70;2.85;;;;;;;9.81;82.56;98773.75;4124031;28;20237;-48
2023/04/26 07:20:19;;;;;;;6.75;3.05;;;;;;;9.74;78.62;98778.50;4137070;28;20226;-48
2023/04/26 07:22:29;;;;;;;6.30;3.67;;;;;;;10.12;79.44;98771.47;4141043;28;20244;-48
2023/04/26 07:24:31;;;;;;;4.10;2.83;;;;;;;9.79;78.45;98765.78;4118386;28;20210;-48
2023/04/26 07:26:34;;;;;;;4.20;3.35;;;;;;;9.56;83.94;98770.44;4134786;28;20628;-49
2023/04/26 07:28:35;;;;;;;3.20;2.90;;;;;;;10.15;82.22;98781.09;4134530;28;20233;-50
2023/04/26 07:30:40;;;;;;;2.88;2.67;;;;;;;10.37;80.78;98769.28;4142257;28;20206;-49
2023/04/26 07:32:42;;;;;;;3.63;3.17;;;;;;;10.38;80.67;98775.56;4137241;28;20206;-48
2023/04/26 07:34:44;;;;;;;6.22;3.13;;;;;;;10.06;80.13;98771.59;4136875;28;20416;-49
2023/04/26 07:36:46;;;;;;;4.10;2.65;;;;;;;10.16;81.21;98777.28;4122724;28;20206;-50
2023/04/26 07:38:48;;;;;;;6.47;3.22;;;;;;;10.02;81.15;98764.94;4119383;28;20294;-49
2023/04/26 07:40:50;;;;;;;3.63;2.42;;;;;;;10.26;80.87;98774.75;4143369;28;20301;-48
2023/04/26 07:42:52;;;;;;;5.55;3.13;;;;;;;10.01;81.53;98766.81;4119439;28;20293;-49
2023/04/26 07:44:54;;;;;;;4.32;2.95;;;;;;;10.11;81.13;98758.88;4125107;28;20239;-49
2023/04/26 07:46:55;;;;;;;5.57;2.80;;;;;;;10.91;79.38;98746.78;4144432;28;20228;-48
2023/04/26 07:48:57;;;;;;;4.35;2.72;;;;;;;11.18;79.33;98756.84;4153515;28;20319;-49
2023/04/26 07:51:12;;;;;;;3.97;2.60;;;;;;;11.42;77.41;98766.56;4135520;28;20225;-49
2023/04/26 07:53:14;;;;;;;3.78;2.42;;;;;;;12.17;74.60;98767.72;4138553;28;20213;-48
2023/04/26 07:55:15;;;;;;;3.78;2.65;;;;;;;11.80;74.10;98754.84;4136150;28;20257;-49
2023/04/26 07:57:18;;;;;;;4.95;2.50;;;;;;;11.24;74.14;98752.31;4137476;28;20642;-49
2023/04/26 07:59:23;;;;;;;5.97;2.80;;;;;;;11.32;75.63;98763.66;4146838;28;22634;-48
2023/04/26 08:01:24;;;;;;;5.22;2.53;;;;;;;10.74;72.19;98756.88;4147583;28;20209;-50
2023/04/26 08:03:27;;;;;;;3.00;2.75;;;;;;;9.98;75.69;98761.00;4132210;28;20243;-48
2023/04/26 08:05:30;;;;;;;3.47;3.03;;;;;;;9.86;79.11;98760.19;4130742;28;20786;-49
2023/04/26 08:07:33;;;;;;;4.97;2.20;;;;;;;10.70;77.58;98757.59;4146097;28;20296;-49
2023/04/26 08:09:35;;;;;;;4.30;2.78;;;;;;;10.91;77.06;98757.75;4132372;28;20269;-49
2023/04/26 08:11:37;;;;;;;4.15;3.35;;;;;;;11.60;76.89;98760.88;4135714;28;20281;-48
2023/04/26 08:13:38;;;;;;;5.70;3.35;;;;;;;11.81;74.91;98768.31;4120804;28;20648;-49
2023/04/26 08:15:40;;;;;;;6.30;3.15;;;;;;;12.16;73.95;98766.06;4120241;28;20305;-49
2023/04/26 08:17:42;;;;;;;5.15;3.20;;;;;;;11.74;68.12;98762.19;4132400;28;20249;-49
2023/04/26 08:19:44;;;;;;;5.28;4.07;;;;;;;11.82;73.14;98760.91;4139496;28;20256;-48
2023/04/26 08:21:46;;;;;;;3.92;3.25;;;;;;;12.55;70.86;98759.44;4150984;28;20667;-49
2023/04/26 08:23:54;;;;;;;5.13;3.65;;;;;;;12.06;67.35;98752.25;4120402;28;20217;-49
2023/04/26 08:26:00;;;;;;;3.90;2.97;;;;;;;11.89;69.94;98748.69;4123960;28;20197;-49
2023/04/26 08:28:03;;;;;;;4.15;3.05;;;;;;;11.89;70.25;98751.44;4137205;28;20641;-50
2023/04/26 08:30:05;;;;;;;5.68;2.95;;;;;;;12.05;69.87;98752.47;4141399;28;20233;-49
2023/04/26 08:32:17;;;;;;;5.18;2.80;;;;;;;12.38;68.66;98744.94;4119242;28;20213;-50
2023/04/26 08:34:21;;;;;;;5.20;2.45;;;;;;;12.29;67.71;98738.25;4137520;28;20299;-49
2023/04/26 08:36:23;;;;;;;4.90;2.83;;;;;;;12.33;65.08;98744.91;4152690;28;20214;-49
2023/04/26 08:38:26;;;;;;;4.03;2.30;;;;;;;12.56;64.01;98739.13;4125512;28;20763;-49
2023/04/26 08:40:30;;;;;;;3.90;2.60;;;;;;;12.46;66.10;98739.03;4136131;28;20597;-49
2023/04/26 08:42:40;;;;;;;2.75;2.00;;;;;;;11.16;59.54;98739.00;4153936;28;20205;-48
2023/04/26 08:44:51;;;;;;;4.93;2.78;;;;;;;11.87;64.48;98739.06;4121733;28;20206;-49
2023/04/26 08:47:03;;;;;;;3.47;1.67;;;;;;;11.67;59.62;98745.09;4126534;28;20241;-48
2023/04/26 08:49:31;;;;;;;4.97;2.38;;;;;;;11.50;58.82;98743.41;4138085;28;20305;-50
2023/04/26 08:51:40;;;;;;;4.15;1.83;;;;;;;12.98;61.69;98737.41;4135606;28;20209;-49
2023/04/26 08:53:47;;;;;;;4.65;1.90;;;;;;;12.83;57.79;98737.22;4132843;28;20676;-48
2023/04/26 08:55:53;;;;;;;1.83;1.63;;;;;;;12.51;56.57;98738.25;4135470;28;20726;-49
2023/04/26 08:57:55;;;;;;;6.60;1.73;;;;;;;13.02;57.65;98738.56;4134688;28;20245;-48
2023/04/26 08:59:58;;;;;;;1.85;1.67;;;;;;;13.48;57.56;98748.03;4136412;28;20240;-49
2023/04/26 09:02:11;;;;;;;3.80;1.63;;;;;;;14.13;57.00;98746.56;4124316;28;20198;-49
2023/04/26 09:04:15;;;;;;;3.15;1.73;;;;;;;13.42;54.06;98744.41;4134461;28;20336;-48
2023/04/26 09:06:17;;;;;;;4.68;1.88;;;;;;;13.62;57.32;98739.06;4153117;28;20240;-49
2023/04/26 09:08:20;;;;;;;3.15;1.83;;;;;;;13.33;56.03;98750.66;4136711;28;20221;-49
2023/04/26 09:10:34;;;;;;;2.88;1.70;;;;;;;13.20;54.89;98740.94;4123185;28;20257;-49
2023/04/26 09:12:38;;;;;;;3.30;1.70;;;;;;;13.69;54.97;98744.38;4137477;28;20205;-48
2023/04/26 09:14:40;;;;;;;6.75;1.65;;;;;;;14.03;56.48;98735.47;4152406;28;20610;-48
2023/04/26 09:16:42;;;;;;;3.15;1.45;;;;;;;14.15;54.82;98744.38;4121304;28;20706;-48
2023/04/26 09:18:57;;;;;;;2.33;1.38;;;;;;;14.28;54.81;98743.91;4135368;28;20241;-49
2023/04/26 09:21:05;;;;;;;2.92;1.38;;;;;;;14.33;55.05;98741.19;4119701;28;20203;-49
2023/04/26 09:23:09;;;;;;;5.68;1.83;;;;;;;14.33;53.10;98741.19;4126982;28;20198;-49
2023/04/26 09:25:12;;;;;;;3.67;1.90;;;;;;;13.26;50.77;98733.56;4151366;28;20247;-49
2023/04/26 09:27:22;;;;;;;3.70;2.22;;;;;;;12.46;52.07;98738.19;4135042;28;20237;-48
2023/04/26 09:29:24;;;;;;;3.85;1.50;;;;;;;13.09;53.19;98730.13;4151178;28;20264;-49
2023/04/26 09:31:39;;;;;;;3.83;1.42;;;;;;;12.69;54.17;98737.88;4136456;28;20304;-49
2023/04/26 09:33:58;;;;;;;3.63;1.60;;;;;;;12.10;51.44;98725.13;4124415;28;20202;-50
2023/04/26 09:36:12;;;;;;;3.30;2.22;;;;;;;12.29;50.95;98721.78;4139821;28;20215;-48
2023/04/26 09:38:16;;;;;;;5.88;1.75;;;;;;;12.11;52.71;98730.34;4139336;28;20299;-48
2023/04/26 09:40:25;;;;;;;2.55;1.45;;;;;;;12.07;51.89;98718.25;4120758;28;20229;-48
2023/04/26 09:42:27;;;;;;;3.50;1.35;;;;;;;12.10;51.76;98727.88;4119673;28;20272;-48